Time,TemperatureF,DewpointF,PressureIn,WindDirection,WindDirectionDegrees,WindSpeedMPH,WindSpeedGustMPH,Humidity,HourlyPrecipIn,Conditions,Clouds,dailyrainin,SoftwareType,DateUTC
2013-04-24 00:03:00,63.0,46.0,-100.00,WSW,250,2.0,7.0,53,-99.99,,,-99.99,,2013-04-24 04:03:00,
2013-04-24 00:12:00,60.0,49.0,-100.00,WNW,295,0.0,1.0,68,-99.99,,,-99.99,,2013-04-24 04:12:00,
2013-04-24 00:23:00,59.0,52.0,-100.00,West,260,2.0,6.0,77,-99.99,,,-99.99,,2013-04-24 04:23:00,
2013-04-24 00:33:00,59.0,54.0,-100.00,West,260,0.0,3.0,83,-99.99,,,-99.99,,2013-04-24 04:33:00,
2013-04-24 00:43:00,59.0,56.0,-100.00,East,85,1.0,5.0,90,-99.99,,,-99.99,,2013-04-24 04:43:00,
2013-04-24 00:52:00,59.0,56.0,-100.00,ESE,110,0.0,3.0,90,-99.99,,,-99.99,,2013-04-24 04:52:00,
2013-04-24 01:02:00,59.0,56.0,-100.00,South,185,1.0,4.0,87,-99.99,,,-99.99,,2013-04-24 05:02:00,
2013-04-24 01:12:00,59.0,55.0,-100.00,SSE,150,1.0,2.0,83,-99.99,,,-99.99,,2013-04-24 05:12:00,
2013-04-24 01:22:00,60.0,54.0,-100.00,SSE,165,0.0,4.0,81,-99.99,,,-99.99,,2013-04-24 05:22:00,
2013-04-24 01:30:00,62.0,50.0,-100.00,SSW,200,2.0,6.0,66,-99.99,,,-99.99,,2013-04-24 05:30:00,
2013-04-24 01:32:00,60.0,53.0,-100.00,SE,135,2.0,6.0,75,-99.99,,,-99.99,,2013-04-24 05:32:00,
2013-04-24 01:42:00,61.0,52.0,-100.00,SSE,165,1.0,6.0,71,-99.99,,,-99.99,,2013-04-24 05:42:00,
2013-04-24 01:52:00,62.0,50.0,-100.00,SSW,200,2.0,6.0,66,-99.99,,,-99.99,,2013-04-24 05:52:00,
2013-04-24 02:02:00,62.0,50.0,-100.00,SSW,200,2.0,6.0,66,-99.99,,,-99.99,,2013-04-24 06:02:00,
2013-04-24 02:12:00,62.0,50.0,-100.00,SSW,200,2.0,6.0,66,-99.99,,,-99.99,,2013-04-24 06:12:00,
2013-04-24 02:22:00,62.0,50.0,-100.00,SSW,200,2.0,6.0,66,-99.99,,,-99.99,,2013-04-24 06:22:00,
2013-04-24 02:42:00,61.0,50.0,-100.00,SE,145,2.0,8.0,68,-99.99,,,-99.99,,2013-04-24 06:42:00,
2013-04-24 02:52:00,61.0,50.0,-100.00,South,190,2.0,8.0,68,-99.99,,,-99.99,,2013-04-24 06:52:00,
2013-04-24 03:02:00,60.0,51.0,-100.00,SSE,155,1.0,10.0,71,-99.99,,,-99.99,,2013-04-24 07:02:00,
2013-04-24 03:11:00,59.0,51.0,-100.00,SE,135,2.0,6.0,73,-99.99,,,-99.99,,2013-04-24 07:11:00,
2013-04-24 03:22:00,60.0,51.0,-100.00,SSE,150,5.0,10.0,71,-99.99,,,-99.99,,2013-04-24 07:22:00,
2013-04-24 03:32:00,60.0,51.0,-100.00,South,190,1.0,8.0,71,-99.99,,,-99.99,,2013-04-24 07:32:00,
2013-04-24 03:42:00,60.0,51.0,-100.00,SSE,155,4.0,14.0,73,-99.99,,,-99.99,,2013-04-24 07:42:00,
2013-04-24 03:52:00,60.0,53.0,-100.00,SE,145,4.0,11.0,77,-99.99,,,-99.99,,2013-04-24 07:52:00,
2013-04-24 04:02:00,60.0,53.0,-100.00,SSE,155,5.0,14.0,78,-99.99,,,-99.99,,2013-04-24 08:02:00,
2013-04-24 04:12:00,60.0,53.0,-100.00,SE,145,6.0,14.0,77,-99.99,,,-99.99,,2013-04-24 08:12:00,
2013-04-24 04:21:00,60.0,53.0,-100.00,South,170,6.0,14.0,78,-99.99,,,-99.99,,2013-04-24 08:21:00,
2013-04-24 04:33:00,59.0,55.0,-100.00,SSE,165,7.0,21.0,84,-99.99,,,-99.99,,2013-04-24 08:33:00,
2013-04-24 04:42:00,58.0,56.0,-100.00,SSE,150,5.0,16.0,93,-99.99,,,-99.99,,2013-04-24 08:42:00,
2013-04-24 04:52:00,57.0,56.0,-100.00,SSE,160,5.0,15.0,96,-99.99,,,-99.99,,2013-04-24 08:52:00,
2013-04-24 05:02:00,57.0,57.0,-100.00,SSE,160,5.0,16.0,98,-99.99,,,-99.99,,2013-04-24 09:02:00,
2013-04-24 05:11:00,57.0,57.0,-100.00,SE,145,6.0,12.0,99,-99.99,,,-99.99,,2013-04-24 09:11:00,
2013-04-24 05:21:00,57.0,57.0,-100.00,SE,135,4.0,13.0,98,-99.99,,,-99.99,,2013-04-24 09:21:00,
2013-04-24 05:33:00,57.0,57.0,-100.00,SSE,150,4.0,13.0,98,-99.99,,,-99.99,,2013-04-24 09:33:00,
2013-04-24 05:42:00,58.0,57.0,-100.00,SE,140,6.0,14.0,98,-99.99,,,-99.99,,2013-04-24 09:42:00,
2013-04-24 05:53:00,58.0,57.0,-100.00,SSE,150,7.0,17.0,98,-99.99,,,-99.99,,2013-04-24 09:53:00,
2013-04-24 06:02:00,58.0,58.0,-100.00,SE,135,5.0,12.0,98,-99.99,,,-99.99,,2013-04-24 10:02:00,
2013-04-24 06:12:00,58.0,58.0,-100.00,SE,130,7.0,20.0,98,-99.99,,,-99.99,,2013-04-24 10:12:00,
2013-04-24 06:22:00,58.0,58.0,-100.00,ESE,120,5.0,18.0,98,-99.99,,,-99.99,,2013-04-24 10:22:00,
2013-04-24 06:33:00,58.0,58.0,-100.00,ESE,110,4.0,17.0,97,-99.99,,,-99.99,,2013-04-24 10:33:00,
2013-04-24 06:42:00,58.0,58.0,-100.00,SE,145,4.0,22.0,97,-99.99,,,-99.99,,2013-04-24 10:42:00,
2013-04-24 06:52:00,58.0,57.0,-100.00,SE,130,5.0,16.0,97,-99.99,,,-99.99,,2013-04-24 10:52:00,
2013-04-24 07:02:00,58.0,57.0,-100.00,SSW,200,4.0,11.0,97,-99.99,,,-99.99,,2013-04-24 11:02:00,
2013-04-24 07:11:00,58.0,57.0,-100.00,ESE,110,4.0,21.0,97,-99.99,,,-99.99,,2013-04-24 11:11:00,
2013-04-24 07:21:00,58.0,57.0,-100.00,SE,125,5.0,17.0,97,-99.99,,,-99.99,,2013-04-24 11:21:00,
2013-04-24 07:32:00,58.0,57.0,-100.00,SE,140,5.0,14.0,97,-99.99,,,-99.99,,2013-04-24 11:32:00,
2013-04-24 07:42:00,58.0,57.0,-100.00,SE,140,3.0,14.0,97,-99.99,,,-99.99,,2013-04-24 11:42:00,
2013-04-24 07:52:00,58.0,57.0,-100.00,SSE,165,6.0,15.0,96,-99.99,,,-99.99,,2013-04-24 11:52:00,
2013-04-24 08:02:00,58.0,57.0,-100.00,SE,125,4.0,14.0,96,-99.99,,,-99.99,,2013-04-24 12:02:00,
2013-04-24 08:11:00,58.0,57.0,-100.00,SSE,165,6.0,12.0,96,-99.99,,,-99.99,,2013-04-24 12:11:00,
2013-04-24 08:22:00,58.0,57.0,-100.00,SSE,165,6.0,12.0,96,-99.99,,,-99.99,,2013-04-24 12:22:00,
2013-04-24 08:32:00,58.0,57.0,-100.00,SE,135,4.0,13.0,96,-99.99,,,-99.99,,2013-04-24 12:32:00,
2013-04-24 08:42:00,58.0,57.0,-100.00,SSE,155,5.0,16.0,96,-99.99,,,-99.99,,2013-04-24 12:42:00,
2013-04-24 08:51:00,58.0,57.0,-100.00,SE,130,3.0,12.0,96,-99.99,,,-99.99,,2013-04-24 12:51:00,
2013-04-24 09:01:00,58.0,57.0,-100.00,SSE,160,3.0,12.0,96,-99.99,,,-99.99,,2013-04-24 13:01:00,
2013-04-24 09:12:00,59.0,57.0,-100.00,SE,130,4.0,11.0,95,-99.99,,,-99.99,,2013-04-24 13:12:00,
2013-04-24 09:22:00,59.0,58.0,-100.00,SSE,160,6.0,14.0,95,-99.99,,,-99.99,,2013-04-24 13:22:00,
2013-04-24 09:32:00,59.0,57.0,-100.00,South,180,6.0,12.0,95,-99.99,,,-99.99,,2013-04-24 13:32:00,
2013-04-24 09:41:00,58.0,57.0,-100.00,South,170,6.0,17.0,96,-99.99,,,-99.99,,2013-04-24 13:41:00,
2013-04-24 09:52:00,58.0,57.0,-100.00,South,170,6.0,17.0,96,-99.99,,,-99.99,,2013-04-24 13:52:00,
2013-04-24 10:01:00,59.0,58.0,-100.00,SSE,165,6.0,13.0,95,-99.99,,,-99.99,,2013-04-24 14:01:00,
2013-04-24 10:11:00,59.0,58.0,-100.00,SE,130,2.0,12.0,95,-99.99,,,-99.99,,2013-04-24 14:11:00,
2013-04-24 10:21:00,53.0,52.0,-100.00,WNW,290,6.0,14.0,95,-99.99,,,-99.99,,2013-04-24 14:21:00,
2013-04-24 10:32:00,46.0,45.0,-100.00,WNW,295,4.0,12.0,99,-99.99,,,-99.99,,2013-04-24 14:32:00,
2013-04-24 10:41:00,44.0,44.0,-100.00,NW,315,6.0,11.0,99,-99.99,,,-99.99,,2013-04-24 14:41:00,
2013-04-24 10:51:00,43.0,43.0,-100.00,NNW,335,1.0,9.0,99,-99.99,,,-99.99,,2013-04-24 14:51:00,
2013-04-24 11:01:00,42.0,42.0,-100.00,NW,315,4.0,7.0,99,-99.99,,,-99.99,,2013-04-24 15:01:00,
2013-04-24 11:11:00,42.0,42.0,-100.00,West,280,3.0,7.0,99,-99.99,,,-99.99,,2013-04-24 15:11:00,
2013-04-24 11:22:00,41.0,41.0,-100.00,West,280,4.0,7.0,99,-99.99,,,-99.99,,2013-04-24 15:22:00,
2013-04-24 11:33:00,41.0,41.0,-100.00,NW,305,4.0,7.0,99,-99.99,,,-99.99,,2013-04-24 15:33:00,
2013-04-24 11:43:00,40.0,40.0,-100.00,NW,320,2.0,6.0,99,-99.99,,,-99.99,,2013-04-24 15:43:00,
2013-04-24 11:53:00,40.0,40.0,-100.00,WNW,285,4.0,7.0,99,-99.99,,,-99.99,,2013-04-24 15:53:00,
2013-04-24 12:03:00,40.0,40.0,-100.00,WSW,255,2.0,8.0,99,-99.99,,,-99.99,,2013-04-24 16:03:00,
2013-04-24 12:12:00,40.0,40.0,-100.00,NW,305,5.0,9.0,99,-99.99,,,-99.99,,2013-04-24 16:12:00,
2013-04-24 12:23:00,40.0,40.0,-100.00,WNW,290,6.0,12.0,99,-99.99,,,-99.99,,2013-04-24 16:23:00,
2013-04-24 12:32:00,40.0,40.0,-100.00,WNW,290,6.0,11.0,99,-99.99,,,-99.99,,2013-04-24 16:32:00,
2013-04-24 12:42:00,40.0,40.0,-100.00,West,265,4.0,10.0,99,-99.99,,,-99.99,,2013-04-24 16:42:00,
2013-04-24 12:52:00,39.0,39.0,-100.00,WSW,250,6.0,11.0,99,-99.99,,,-99.99,,2013-04-24 16:52:00,
2013-04-24 13:02:00,39.0,39.0,-100.00,NW,325,1.0,9.0,99,-99.99,,,-99.99,,2013-04-24 17:02:00,
2013-04-24 13:12:00,40.0,40.0,-100.00,NNW,340,1.0,4.0,99,-99.99,,,-99.99,,2013-04-24 17:12:00,
2013-04-24 13:22:00,39.0,39.0,-100.00,NE,35,2.0,6.0,99,-99.99,,,-99.99,,2013-04-24 17:22:00,
2013-04-24 13:32:00,39.0,39.0,-100.00,NNW,335,4.0,5.0,99,-99.99,,,-99.99,,2013-04-24 17:32:00,
2013-04-24 13:42:00,40.0,40.0,-100.00,West,275,2.0,7.0,99,-99.99,,,-99.99,,2013-04-24 17:42:00,
2013-04-24 13:51:00,40.0,40.0,-100.00,WSW,250,6.0,11.0,99,-99.99,,,-99.99,,2013-04-24 17:51:00,
2013-04-24 14:02:00,39.0,39.0,-100.00,WNW,285,7.0,10.0,99,-99.99,,,-99.99,,2013-04-24 18:02:00,
2013-04-24 14:12:00,39.0,39.0,-100.00,West,275,9.0,16.0,99,-99.99,,,-99.99,,2013-04-24 18:12:00,
2013-04-24 14:22:00,39.0,39.0,-100.00,West,275,5.0,15.0,99,-99.99,,,-99.99,,2013-04-24 18:22:00,
2013-04-24 14:33:00,39.0,39.0,-100.00,West,270,6.0,14.0,99,-99.99,,,-99.99,,2013-04-24 18:33:00,
2013-04-24 14:42:00,39.0,39.0,-100.00,WSW,255,4.0,16.0,99,-99.99,,,-99.99,,2013-04-24 18:42:00,
2013-04-24 14:52:00,39.0,39.0,-100.00,NW,310,6.0,14.0,99,-99.99,,,-99.99,,2013-04-24 18:52:00,
2013-04-24 15:02:00,39.0,39.0,-100.00,WSW,245,5.0,13.0,99,-99.99,,,-99.99,,2013-04-24 19:02:00,
2013-04-24 15:11:00,39.0,39.0,-100.00,WSW,245,6.0,12.0,99,-99.99,,,-99.99,,2013-04-24 19:11:00,
2013-04-24 15:22:00,39.0,39.0,-100.00,West,260,7.0,15.0,99,-99.99,,,-99.99,,2013-04-24 19:22:00,
2013-04-24 15:32:00,39.0,39.0,-100.00,NW,310,8.0,14.0,99,-99.99,,,-99.99,,2013-04-24 19:32:00,
2013-04-24 15:42:00,39.0,39.0,-100.00,WNW,295,5.0,12.0,99,-99.99,,,-99.99,,2013-04-24 19:42:00,
2013-04-24 15:52:00,39.0,39.0,-100.00,West,275,6.0,13.0,99,-99.99,,,-99.99,,2013-04-24 19:52:00,
2013-04-24 16:02:00,40.0,40.0,-100.00,West,270,6.0,12.0,99,-99.99,,,-99.99,,2013-04-24 20:02:00,
2013-04-24 16:11:00,39.0,39.0,-100.00,WNW,295,10.0,17.0,99,-99.99,,,-99.99,,2013-04-24 20:11:00,
2013-04-24 16:22:00,39.0,39.0,-100.00,WNW,295,10.0,17.0,99,-99.99,,,-99.99,,2013-04-24 20:22:00,
2013-04-24 16:32:00,39.0,39.0,-100.00,WNW,285,6.0,15.0,99,-99.99,,,-99.99,,2013-04-24 20:32:00,
2013-04-24 16:42:00,39.0,39.0,-100.00,WNW,285,6.0,18.0,99,-99.99,,,-99.99,,2013-04-24 20:42:00,
2013-04-24 16:52:00,39.0,39.0,-100.00,NW,310,6.0,18.0,99,-99.99,,,-99.99,,2013-04-24 20:52:00,
2013-04-24 17:02:00,39.0,39.0,-100.00,WNW,300,9.0,16.0,99,-99.99,,,-99.99,,2013-04-24 21:02:00,
2013-04-24 17:11:00,39.0,39.0,-100.00,NW,305,7.0,15.0,99,-99.99,,,-99.99,,2013-04-24 21:11:00,
2013-04-24 17:22:00,38.0,38.0,-100.00,WNW,290,7.0,18.0,99,-99.99,,,-99.99,,2013-04-24 21:22:00,
2013-04-24 17:33:00,38.0,38.0,-100.00,WNW,290,7.0,14.0,99,-99.99,,,-99.99,,2013-04-24 21:33:00,
2013-04-24 17:42:00,38.0,38.0,-100.00,NNW,330,5.0,13.0,99,-99.99,,,-99.99,,2013-04-24 21:42:00,
2013-04-24 17:52:00,38.0,38.0,-100.00,WNW,290,7.0,16.0,99,-99.99,,,-99.99,,2013-04-24 21:52:00,
2013-04-24 18:03:00,38.0,38.0,-100.00,West,270,7.0,16.0,99,-99.99,,,-99.99,,2013-04-24 22:03:00,
2013-04-24 18:12:00,39.0,39.0,-100.00,West,270,6.0,14.0,99,-99.99,,,-99.99,,2013-04-24 22:12:00,
2013-04-24 18:22:00,38.0,38.0,-100.00,WSW,255,9.0,16.0,99,-99.99,,,-99.99,,2013-04-24 22:22:00,
2013-04-24 18:33:00,38.0,38.0,-100.00,West,275,9.0,17.0,99,-99.99,,,-99.99,,2013-04-24 22:33:00,
2013-04-24 18:42:00,39.0,39.0,-100.00,WSW,250,7.0,17.0,99,-99.99,,,-99.99,,2013-04-24 22:42:00,
2013-04-24 18:52:00,39.0,39.0,-100.00,West,270,10.0,19.0,99,-99.99,,,-99.99,,2013-04-24 22:52:00,
2013-04-24 19:02:00,39.0,39.0,-100.00,WSW,250,6.0,19.0,99,-99.99,,,-99.99,,2013-04-24 23:02:00,
2013-04-24 19:12:00,39.0,39.0,-100.00,SW,235,6.0,17.0,99,-99.99,,,-99.99,,2013-04-24 23:12:00,
2013-04-24 19:21:00,39.0,39.0,-100.00,WNW,285,11.0,17.0,99,-99.99,,,-99.99,,2013-04-24 23:21:00,
2013-04-24 19:32:00,39.0,39.0,-100.00,WSW,245,9.0,18.0,99,-99.99,,,-99.99,,2013-04-24 23:32:00,
2013-04-24 19:42:00,39.0,39.0,-100.00,West,265,9.0,17.0,99,-99.99,,,-99.99,,2013-04-24 23:42:00,
2013-04-24 19:51:00,39.0,39.0,-100.00,WSW,250,9.0,18.0,99,-99.99,,,-99.99,,2013-04-24 23:51:00,
2013-04-24 20:02:00,39.0,39.0,-100.00,SW,230,9.0,18.0,99,-99.99,,,-99.99,,2013-04-25 00:02:00,
2013-04-24 20:12:00,39.0,39.0,-100.00,WNW,295,9.0,16.0,99,-99.99,,,-99.99,,2013-04-25 00:12:00,
2013-04-24 20:22:00,40.0,40.0,-100.00,WSW,240,7.0,17.0,99,-99.99,,,-99.99,,2013-04-25 00:22:00,
2013-04-24 20:32:00,40.0,40.0,-100.00,West,260,8.0,16.0,99,-99.99,,,-99.99,,2013-04-25 00:32:00,
2013-04-24 20:42:00,40.0,40.0,-100.00,WSW,255,9.0,17.0,99,-99.99,,,-99.99,,2013-04-25 00:42:00,
2013-04-24 20:52:00,40.0,40.0,-100.00,West,280,6.0,12.0,99,-99.99,,,-99.99,,2013-04-25 00:52:00,
2013-04-24 21:02:00,41.0,41.0,-100.00,SW,235,7.0,16.0,99,-99.99,,,-99.99,,2013-04-25 01:02:00,
2013-04-24 21:11:00,41.0,41.0,-100.00,WSW,255,7.0,16.0,99,-99.99,,,-99.99,,2013-04-25 01:11:00,
2013-04-24 21:23:00,41.0,41.0,-100.00,SW,235,7.0,15.0,99,-99.99,,,-99.99,,2013-04-25 01:23:00,
2013-04-24 21:32:00,41.0,41.0,-100.00,WSW,255,7.0,17.0,99,-99.99,,,-99.99,,2013-04-25 01:32:00,
2013-04-24 21:42:00,41.0,41.0,-100.00,WSW,255,7.0,17.0,99,-99.99,,,-99.99,,2013-04-25 01:42:00,
2013-04-24 21:52:00,41.0,40.0,-100.00,WSW,240,8.0,16.0,96,-99.99,,,-99.99,,2013-04-25 01:52:00,
2013-04-24 22:02:00,41.0,40.0,-100.00,SW,220,9.0,16.0,96,-99.99,,,-99.99,,2013-04-25 02:02:00,
2013-04-24 22:11:00,41.0,40.0,-100.00,WSW,255,7.0,16.0,96,-99.99,,,-99.99,,2013-04-25 02:11:00,
2013-04-24 22:22:00,42.0,41.0,-100.00,WSW,245,7.0,15.0,98,-99.99,,,-99.99,,2013-04-25 02:22:00,
2013-04-24 22:32:00,42.0,41.0,-100.00,WSW,245,7.0,15.0,98,-99.99,,,-99.99,,2013-04-25 02:32:00,
2013-04-24 22:42:00,42.0,41.0,-100.00,WSW,245,7.0,15.0,98,-99.99,,,-99.99,,2013-04-25 02:42:00,
2013-04-24 22:51:00,42.0,41.0,-100.00,WSW,245,7.0,15.0,98,-99.99,,,-99.99,,2013-04-25 02:51:00,
2013-04-24 23:02:00,41.0,40.0,-100.00,SSW,210,5.0,9.0,97,-99.99,,,-99.99,,2013-04-25 03:02:00,
2013-04-24 23:11:00,41.0,40.0,-100.00,SW,215,7.0,11.0,97,-99.99,,,-99.99,,2013-04-25 03:11:00,
2013-04-24 23:22:00,41.0,40.0,-100.00,SW,225,6.0,11.0,97,-99.99,,,-99.99,,2013-04-25 03:22:00,
2013-04-24 23:33:00,41.0,40.0,-100.00,SW,215,6.0,13.0,97,-99.99,,,-99.99,,2013-04-25 03:33:00,
2013-04-24 23:42:00,40.0,40.0,-100.00,SSW,210,7.0,12.0,97,-99.99,,,-99.99,,2013-04-25 03:42:00,
2013-04-24 23:52:00,40.0,40.0,-100.00,SSW,195,7.0,12.0,97,-99.99,,,-99.99,,2013-04-25 03:52:00,